Time;durP1;ratioP1;P1;durP2;ratioP2;P2;SDS_P1;SDS_P2;PMS_P1;PMS_P2;Temp;Humidity;BMP_temperature;BMP_pressure;BME280_temperature;BME280_humidity;BME280_pressure;Samples;Min_cycle;Max_cycle;Signal;HPM_P1;HPM_P2
2023/10/02 00:05:40;;;;;;;8.90;7.90;;;;;;;15.13;98.59;63561.56;5024190;28;20476;-78
2023/10/02 00:08:03;;;;;;;8.43;7.63;;;;;;;15.15;97.22;63563.63;5027019;28;20230;-77
2023/10/02 00:10:32;;;;;;;8.60;6.70;;;;;;;15.15;96.03;63561.06;5025966;28;20248;-78
2023/10/02 00:12:59;;;;;;;9.82;6.97;;;;;;;15.16;94.88;63564.16;5044194;28;20264;-77
2023/10/02 00:15:27;;;;;;;9.43;6.60;;;;;;;15.15;95.29;63565.69;5031618;28;20229;-76
2023/10/02 00:17:53;;;;;;;7.85;6.57;;;;;;;15.17;94.19;63565.69;5027333;28;20222;-77
2023/10/02 00:20:22;;;;;;;9.55;6.28;;;;;;;15.18;93.09;63566.75;5032070;28;20218;-77
2023/10/02 00:22:50;;;;;;;8.15;6.30;;;;;;;15.22;93.05;63570.38;5035464;28;20241;-77
2023/10/02 00:25:19;;;;;;;8.60;6.90;;;;;;;15.19;92.72;63567.25;5041065;28;20229;-77
2023/10/02 00:27:50;;;;;;;7.22;5.95;;;;;;;15.16;92.03;63564.16;5026845;28;20510;-78
2023/10/02 00:30:20;;;;;;;6.80;5.68;;;;;;;15.14;92.03;63565.16;5026652;28;20226;-75
2023/10/02 00:32:49;;;;;;;9.32;5.95;;;;;;;15.14;92.13;63562.59;5026212;28;20429;-76
2023/10/02 00:35:16;;;;;;;8.48;5.95;;;;;;;15.14;91.64;63559.50;5027198;28;20218;-76
2023/10/02 00:37:44;;;;;;;6.28;5.68;;;;;;;15.12;91.97;63563.06;5026757;28;20410;-77
2023/10/02 00:40:14;;;;;;;6.72;5.95;;;;;;;15.14;91.83;63562.06;5025255;28;20229;-77
2023/10/02 00:42:41;;;;;;;6.78;5.60;;;;;;;15.11;92.13;63558.94;5030981;28;20201;-76
2023/10/02 00:45:10;;;;;;;6.07;5.43;;;;;;;15.09;91.97;63554.84;5045776;28;20221;-78
2023/10/02 00:47:41;;;;;;;9.30;6.35;;;;;;;15.03;92.09;63554.25;5043627;28;20186;-76
2023/10/02 00:50:16;;;;;;;7.72;5.95;;;;;;;15.02;92.47;63550.66;5025897;28;20514;-77
2023/10/02 00:52:47;;;;;;;7.03;5.30;;;;;;;14.92;93.18;63542.28;5025472;28;20236;-78
2023/10/02 00:55:17;;;;;;;6.88;6.28;;;;;;;14.89;93.14;63539.69;5026475;28;20222;-78
2023/10/02 00:57:45;;;;;;;6.32;5.20;;;;;;;14.86;93.62;63534.00;5024997;28;20195;-78
2023/10/02 01:00:21;;;;;;;7.32;6.03;;;;;;;14.87;92.99;63537.63;5025746;28;20250;-76
2023/10/02 01:02:51;;;;;;;10.48;5.90;;;;;;;14.93;92.53;63541.28;5033237;28;20190;-76
2023/10/02 01:05:30;;;;;;;7.40;6.15;;;;;;;14.88;92.73;63538.13;5025581;28;20403;-77
2023/10/02 01:07:58;;;;;;;8.60;6.18;;;;;;;14.90;92.55;63537.66;5025674;28;20202;-76
2023/10/02 01:10:29;;;;;;;6.65;6.05;;;;;;;14.91;92.25;63541.25;5025652;28;20543;-77
2023/10/02 01:13:05;;;;;;;8.65;6.43;;;;;;;14.94;91.06;63541.81;5032511;28;20510;-77
2023/10/02 01:15:34;;;;;;;10.00;6.28;;;;;;;14.91;91.54;63539.22;5045822;28;20221;-77
2023/10/02 01:20:48;;;;;;;8.35;6.55;;;;;;;14.86;90.64;63534.00;5032600;28;20218;-77
2023/10/02 01:23:17;;;;;;;7.07;6.45;;;;;;;14.86;90.71;63539.16;5042415;28;20217;-78
2023/10/02 01:25:49;;;;;;;9.82;6.55;;;;;;;14.88;90.40;63535.56;5034401;28;20228;-77
2023/10/02 01:28:20;;;;;;;8.52;6.88;;;;;;;14.93;89.13;63538.19;5025197;28;20193;-76
2023/10/02 01:30:50;;;;;;;9.27;6.90;;;;;;;14.93;89.40;63543.84;5032144;28;20281;-77
2023/10/02 01:33:22;;;;;;;8.27;5.90;;;;;;;14.90;89.42;63540.22;5039240;28;20407;-76
2023/10/02 01:35:51;;;;;;;8.52;5.88;;;;;;;14.86;89.01;63531.44;5042984;28;20272;-76
2023/10/02 01:38:22;;;;;;;7.82;5.07;;;;;;;14.86;88.12;63533.50;5025669;28;20277;-76
2023/10/02 01:41:01;;;;;;;5.97;5.25;;;;;;;14.82;88.50;63529.84;5031577;28;20272;-78
2023/10/02 01:43:32;;;;;;;6.10;5.40;;;;;;;14.76;87.68;63523.63;5029562;28;20292;-77
2023/10/02 01:46:01;;;;;;;6.70;5.07;;;;;;;14.74;88.05;63518.47;5025491;28;20293;-77
2023/10/02 01:48:40;;;;;;;6.90;5.63;;;;;;;14.63;88.29;63507.56;5025019;28;20199;-77
2023/10/02 01:51:21;;;;;;;5.63;4.97;;;;;;;14.66;88.67;63512.72;5028737;28;20222;-75
2023/10/02 01:53:49;;;;;;;5.63;5.10;;;;;;;14.57;89.75;63506.44;5024288;28;20222;-77
2023/10/02 01:56:19;;;;;;;7.38;5.50;;;;;;;14.52;91.09;63498.69;5026134;28;20202;-76
2023/10/02 01:58:48;;;;;;;8.45;5.63;;;;;;;14.44;91.17;63492.44;5028310;28;20206;-77
2023/10/02 02:01:16;;;;;;;7.50;5.35;;;;;;;14.42;89.13;63488.31;5029765;28;20218;-76
2023/10/02 02:03:48;;;;;;;5.40;4.90;;;;;;;14.36;88.07;63484.63;5028551;28;20431;-76
2023/10/02 02:06:20;;;;;;;8.77;5.75;;;;;;;14.40;87.25;63488.28;5028277;28;20230;-77
2023/10/02 02:08:53;;;;;;;7.50;4.38;;;;;;;14.38;86.73;63486.19;5034139;28;20193;-77
2023/10/02 02:11:24;;;;;;;9.82;4.93;;;;;;;14.33;87.16;63486.66;5048516;28;20214;-77
2023/10/02 02:13:53;;;;;;;6.82;4.63;;;;;;;14.33;87.03;63475.88;5046850;28;20252;-77
2023/10/02 02:16:28;;;;;;;6.82;4.65;;;;;;;14.30;87.05;63478.41;5031362;28;20207;-77
2023/10/02 02:18:55;;;;;;;4.82;4.43;;;;;;;14.29;86.51;63474.31;5031603;28;20233;-77
2023/10/02 02:21:25;;;;;;;9.07;4.68;;;;;;;14.27;86.38;63472.72;5035392;28;20413;-76
2023/10/02 02:24:03;;;;;;;14.15;5.00;;;;;;;14.27;85.75;63477.34;5043184;28;20230;-77
2023/10/02 02:26:33;;;;;;;10.52;5.20;;;;;;;14.21;86.44;63465.97;5028649;28;20218;-77
2023/10/02 02:29:01;;;;;;;8.57;4.97;;;;;;;14.14;85.99;63458.69;5028816;28;20480;-77
2023/10/02 02:31:31;;;;;;;5.13;4.68;;;;;;;14.14;82.83;63461.78;5039810;28;20225;-77
2023/10/02 02:34:04;;;;;;;13.10;4.47;;;;;;;14.09;81.86;63459.16;5038650;28;20274;-77
2023/10/02 02:36:35;;;;;;;6.60;3.97;;;;;;;14.15;79.13;63460.25;5029816;28;20245;-78
2023/10/02 02:39:16;;;;;;;7.10;3.80;;;;;;;14.11;76.19;63450.97;5033606;28;20198;-77
2023/10/02 02:41:47;;;;;;;4.22;3.88;;;;;;;14.08;73.52;63455.53;5028036;28;20203;-76
2023/10/02 02:44:36;;;;;;;5.53;3.65;;;;;;;14.11;73.06;63458.66;5033282;28;20237;-78
2023/10/02 02:47:07;;;;;;;5.82;4.13;;;;;;;14.07;71.51;63451.41;5029146;28;20477;-77
2023/10/02 02:49:48;;;;;;;5.47;3.53;;;;;;;14.03;72.08;63452.41;5028532;28;20261;-77
2023/10/02 02:52:17;;;;;;;4.10;3.70;;;;;;;14.06;72.07;63456.03;5047418;28;20226;-76
2023/10/02 02:54:47;;;;;;;6.25;3.95;;;;;;;13.98;71.83;63442.59;5040861;28;20230;-75
2023/10/02 02:57:18;;;;;;;6.38;3.92;;;;;;;14.00;70.72;63444.16;5041561;28;20193;-77
2023/10/02 02:59:46;;;;;;;6.20;3.85;;;;;;;14.04;69.92;63453.44;5039471;28;20245;-76
2023/10/02 03:02:21;;;;;;;5.03;3.53;;;;;;;13.99;70.00;63446.22;5027857;28;20199;-80
2023/10/02 03:04:53;;;;;;;6.97;3.50;;;;;;;13.96;69.32;63437.97;5027495;28;20297;-79
2023/10/02 03:07:29;;;;;;;8.57;4.15;;;;;;;13.96;69.52;63440.00;5035940;28;20289;-75
2023/10/02 03:10:02;;;;;;;5.63;3.45;;;;;;;13.94;67.77;63438.97;5045300;28;20280;-75
2023/10/02 03:12:31;;;;;;;5.35;4.40;;;;;;;13.92;67.94;63433.81;5030797;28;20213;-76
2023/10/02 03:14:58;;;;;;;3.92;3.35;;;;;;;13.96;67.36;63440.00;5034944;28;20245;-77
2023/10/02 03:17:32;;;;;;;4.00;3.58;;;;;;;13.93;67.04;63434.84;5031339;28;20506;-77
2023/10/02 03:20:00;;;;;;;5.82;3.83;;;;;;;13.88;66.09;63432.22;5030282;28;20232;-78
2023/10/02 03:22:33;;;;;;;5.32;3.83;;;;;;;13.92;65.25;63433.81;5048255;28;20252;-79
2023/10/02 03:25:25;;;;;;;11.05;3.90;;;;;;;13.92;64.98;63438.94;5034908;28;20515;-77
2023/10/02 03:27:51;;;;;;;6.55;4.03;;;;;;;13.90;64.94;63436.88;5041086;28;20543;-77
2023/10/02 03:30:35;;;;;;;4.95;3.80;;;;;;;13.93;65.10;63440.50;5030502;28;20269;-77
2023/10/02 03:33:03;;;;;;;4.93;3.72;;;;;;;13.87;64.99;63434.25;5027951;28;20405;-76
2023/10/02 03:35:34;;;;;;;6.82;4.10;;;;;;;13.86;64.96;63430.66;5038748;28;20236;-76
2023/10/02 03:38:03;;;;;;;5.95;3.85;;;;;;;13.86;64.25;63430.16;5039457;28;20194;-78
2023/10/02 03:40:31;;;;;;;9.02;3.97;;;;;;;13.84;64.69;63423.47;5030952;28;20222;-76
2023/10/02 03:43:18;;;;;;;5.75;3.60;;;;;;;13.87;64.89;63426.56;5027647;28;20270;-77
2023/10/02 03:45:50;;;;;;;8.05;4.18;;;;;;;13.87;65.26;63431.19;5027881;28;20234;-76
2023/10/02 03:48:17;;;;;;;4.93;3.50;;;;;;;13.85;65.51;63432.19;5026961;28;20201;-77
2023/10/02 03:50:44;;;;;;;6.32;4.15;;;;;;;13.89;65.03;63433.78;5034448;28;20277;-77
2023/10/02 03:53:28;;;;;;;6.50;3.95;;;;;;;13.88;63.48;63434.78;5042092;28;20201;-78
2023/10/02 03:55:59;;;;;;;6.82;4.10;;;;;;;13.94;62.58;63436.41;5033869;28;20222;-77
2023/10/02 03:58:38;;;;;;;5.78;3.05;;;;;;;13.94;62.02;63438.47;5039195;28;20427;-79
2023/10/02 04:01:08;;;;;;;7.75;3.95;;;;;;;13.92;61.31;63431.25;5045452;28;20224;-79
2023/10/02 04:03:52;;;;;;;8.73;3.85;;;;;;;14.00;61.28;63441.59;5031063;28;20220;-77
2023/10/02 04:06:33;;;;;;;7.68;4.13;;;;;;;14.00;61.04;63449.81;5027331;28;20433;-78
2023/10/02 04:09:09;;;;;;;6.53;3.72;;;;;;;13.94;61.25;63438.47;5030499;28;20211;-77
2023/10/02 04:11:38;;;;;;;11.00;4.07;;;;;;;14.02;60.88;63444.19;5034169;28;20248;-78
2023/10/02 04:14:17;;;;;;;5.22;3.90;;;;;;;13.92;60.55;63436.38;5031895;28;20203;-77
2023/10/02 04:16:48;;;;;;;8.30;4.03;;;;;;;13.96;60.37;63440.53;5027467;28;20202;-76
2023/10/02 04:19:16;;;;;;;7.43;3.15;;;;;;;13.99;60.08;63446.22;5037681;28;20237;-77
2023/10/02 04:21:47;;;;;;;3.90;3.22;;;;;;;13.93;60.81;63434.84;5027739;28;20512;-75
2023/10/02 04:24:13;;;;;;;7.07;3.30;;;;;;;13.96;60.60;63437.47;5029125;28;20579;-77
2023/10/02 04:26:44;;;;;;;6.95;3.67;;;;;;;13.99;60.57;63443.66;5027475;28;20207;-78
2023/10/02 04:29:25;;;;;;;5.40;3.17;;;;;;;13.93;60.33;63437.94;5029792;28;20223;-77
2023/10/02 04:32:11;;;;;;;8.60;3.08;;;;;;;13.94;60.25;63438.97;5037158;28;20264;-78
2023/10/02 04:34:46;;;;;;;6.22;3.13;;;;;;;14.00;60.22;63444.16;5031563;28;20229;-79
2023/10/02 04:37:20;;;;;;;8.75;2.83;;;;;;;13.93;60.48;63436.91;5032148;28;20232;-78
2023/10/02 04:39:59;;;;;;;6.32;2.70;;;;;;;13.98;60.62;63444.66;5033748;28;20221;-80
2023/10/02 04:42:29;;;;;;;5.95;3.20;;;;;;;13.98;60.93;63445.16;5038075;28;20224;-78
2023/10/02 04:44:56;;;;;;;4.07;2.80;;;;;;;13.91;61.49;63430.22;5037657;28;20238;-78
2023/10/02 04:47:26;;;;;;;4.20;2.85;;;;;;;13.93;62.07;63436.91;5028116;28;20211;-80
2023/10/02 04:53:04;;;;;;;7.50;3.67;;;;;;;13.84;62.40;63425.50;5045490;28;20208;-79
2023/10/02 04:55:41;;;;;;;7.43;3.80;;;;;;;13.91;62.35;63440.44;5031986;28;20219;-79
2023/10/02 04:58:13;;;;;;;4.00;3.13;;;;;;;13.88;62.59;63440.44;5029486;28;20246;-78
2023/10/02 05:01:24;;;;;;;8.45;3.00;;;;;;;13.91;62.28;63430.75;5027794;28;20218;-78
2023/10/02 05:03:30;;;;;;;3.78;2.90;;;;;;;13.85;62.77;63426.56;5027703;28;20525;-79
2023/10/02 05:05:59;;;;;;;7.30;3.17;;;;;;;13.88;62.68;63432.75;5030355;28;20238;-77
2023/10/02 05:08:33;;;;;;;3.65;2.92;;;;;;;13.88;63.15;63434.78;5025955;28;20261;-76
2023/10/02 05:11:05;;;;;;;6.05;2.78;;;;;;;13.93;63.08;63442.03;5046526;28;20237;-79
2023/10/02 05:13:53;;;;;;;5.47;3.05;;;;;;;13.93;63.06;63436.91;5036892;28;20258;-79
2023/10/02 05:16:27;;;;;;;4.00;3.33;;;;;;;13.96;62.72;63440.00;5027297;28;20498;-78
2023/10/02 05:18:53;;;;;;;6.18;2.90;;;;;;;13.93;62.58;63440.50;5032513;28;20207;-78
2023/10/02 05:21:35;;;;;;;5.82;3.00;;;;;;;13.99;62.25;63448.78;5029529;28;20455;-79
2023/10/02 05:24:03;;;;;;;3.58;2.65;;;;;;;13.96;62.31;63440.00;5035754;28;20268;-79
2023/10/02 05:26:35;;;;;;;7.30;3.20;;;;;;;13.94;62.46;63435.91;5029521;28;20392;-78
2023/10/02 05:29:05;;;;;;;4.25;3.05;;;;;;;13.93;62.38;63437.94;5026837;28;20249;-80
2023/10/02 05:31:35;;;;;;;3.28;2.88;;;;;;;13.91;62.58;63432.78;5039001;28;20198;-79
2023/10/02 05:34:08;;;;;;;8.25;2.97;;;;;;;13.94;61.83;63438.97;5043030;28;20221;-78
2023/10/02 05:36:36;;;;;;;3.67;3.00;;;;;;;13.96;62.24;63443.09;5047254;28;20216;-77
2023/10/02 05:39:28;;;;;;;6.72;3.20;;;;;;;14.03;61.86;63447.78;5048121;28;20228;-79
2023/10/02 05:41:56;;;;;;;8.35;3.10;;;;;;;13.97;61.38;63444.13;5037425;28;20437;-77
2023/10/02 05:44:25;;;;;;;8.30;2.97;;;;;;;14.00;61.66;63444.16;5027819;28;20447;-76
2023/10/02 05:47:04;;;;;;;3.63;2.97;;;;;;;14.07;60.51;63453.97;5027700;28;20197;-78
2023/10/02 05:49:32;;;;;;;5.60;2.75;;;;;;;14.12;60.76;63457.13;5028218;28;20222;-78
2023/10/02 05:52:00;;;;;;;2.55;2.35;;;;;;;14.22;60.17;63464.44;5027629;28;20202;-79
2023/10/02 05:54:29;;;;;;;5.00;3.35;;;;;;;14.30;59.58;63477.91;5027801;28;20233;-80
2023/10/02 05:57:08;;;;;;;5.93;3.13;;;;;;;14.26;59.50;63471.69;5027224;28;20222;-78
2023/10/02 05:59:48;;;;;;;6.57;2.53;;;;;;;14.27;59.27;63472.72;5027478;28;20305;-77
2023/10/02 06:02:19;;;;;;;3.92;3.47;;;;;;;14.26;59.31;63468.59;5031759;28;20217;-79
2023/10/02 06:04:48;;;;;;;7.55;3.15;;;;;;;14.27;59.12;63477.84;5027505;28;20242;-79
2023/10/02 06:07:40;;;;;;;2.97;2.47;;;;;;;14.40;58.63;63485.72;5027653;28;20480;-78
2023/10/02 06:10:24;;;;;;;7.38;2.58;;;;;;;14.40;58.07;63486.25;5031299;28;20248;-77
2023/10/02 06:13:02;;;;;;;7.65;4.03;;;;;;;14.53;58.30;63497.16;5028906;28;20207;-78
2023/10/02 06:15:46;;;;;;;2.80;2.60;;;;;;;14.52;58.06;63500.75;5028496;28;20230;-78
2023/10/02 06:18:24;;;;;;;6.15;2.78;;;;;;;14.58;58.69;63507.47;5026605;28;20632;-77
2023/10/02 06:21:00;;;;;;;2.60;2.40;;;;;;;14.72;57.99;63524.59;5027398;28;20237;-79
2023/10/02 06:23:29;;;;;;;6.32;2.95;;;;;;;14.59;58.47;63505.44;5028441;28;20198;-81
2023/10/02 06:25:58;;;;;;;4.45;2.58;;;;;;;14.53;58.42;63499.72;5028256;28;20527;-78
2023/10/02 06:28:27;;;;;;;4.32;2.45;;;;;;;14.53;58.08;63504.84;5026940;28;20205;-77
2023/10/02 06:30:55;;;;;;;2.80;2.47;;;;;;;14.58;57.92;63507.47;5037764;28;20243;-78
2023/10/02 06:33:24;;;;;;;3.05;2.67;;;;;;;14.64;57.28;63510.63;5028701;28;20265;-80
2023/10/02 06:36:00;;;;;;;5.60;3.13;;;;;;;14.79;57.37;63531.34;5026926;28;20222;-78
2023/10/02 06:38:30;;;;;;;3.67;2.58;;;;;;;14.67;57.92;63514.28;5028712;28;20202;-77
2023/10/02 06:40:57;;;;;;;4.85;2.60;;;;;;;14.63;58.54;63507.03;5027849;28;20224;-79
2023/10/02 06:43:29;;;;;;;4.57;2.90;;;;;;;14.60;58.59;63509.56;5027998;28;20198;-78
2023/10/02 06:46:06;;;;;;;3.67;3.00;;;;;;;14.76;57.98;63521.06;5029569;28;20261;-77
2023/10/02 06:48:35;;;;;;;3.95;2.25;;;;;;;14.90;57.28;63538.19;5033132;28;20217;-78
2023/10/02 06:51:03;;;;;;;5.60;2.97;;;;;;;15.01;56.87;63551.66;5031607;28;20241;-77
2023/10/02 06:53:30;;;;;;;4.38;2.90;;;;;;;15.10;57.14;63555.84;5031937;28;20261;-79
2023/10/02 06:56:07;;;;;;;3.22;2.92;;;;;;;15.17;56.81;63560.56;5030663;28;20222;-79
2023/10/02 06:58:46;;;;;;;3.85;2.92;;;;;;;15.11;56.64;63562.03;5033561;28;20202;-76
2023/10/02 07:01:14;;;;;;;5.93;3.08;;;;;;;15.22;55.90;63568.31;5038440;28;20466;-78
2023/10/02 07:03:50;;;;;;;5.00;3.10;;;;;;;15.32;55.59;63585.91;5038543;28;20206;-82
2023/10/02 07:06:19;;;;;;;2.63;2.42;;;;;;;15.20;56.91;63568.84;5035598;28;20225;-76
2023/10/02 07:08:48;;;;;;;4.00;2.72;;;;;;;15.27;56.92;63580.72;5040434;28;20260;-79
2023/10/02 07:11:18;;;;;;;6.25;3.03;;;;;;;15.25;57.06;63574.03;5040244;28;20263;-78
2023/10/02 07:13:56;;;;;;;4.18;2.83;;;;;;;15.37;56.13;63580.84;5043912;28;20648;-81
2023/10/02 07:16:26;;;;;;;6.18;2.90;;;;;;;15.61;56.10;63611.47;5036929;28;20294;-78
2023/10/02 07:18:58;;;;;;;6.20;3.38;;;;;;;15.23;58.29;63574.00;5030201;28;20261;-78
2023/10/02 07:21:27;;;;;;;5.63;2.65;;;;;;;15.04;58.42;63549.63;5038309;28;20417;-77
2023/10/02 07:23:55;;;;;;;7.20;2.83;;;;;;;15.12;58.68;63557.44;5044973;28;20209;-80
2023/10/02 07:26:49;;;;;;;5.70;3.13;;;;;;;14.92;59.45;63537.16;5032734;28;20233;-78
2023/10/02 07:29:09;;;;;;;8.05;3.72;;;;;;;14.97;59.72;63542.88;5032407;28;20204;-78
2023/10/02 07:31:36;;;;;;;5.90;2.97;;;;;;;14.70;60.50;63519.94;5040695;28;20243;-77
2023/10/02 07:34:08;;;;;;;3.15;2.85;;;;;;;14.69;61.39;63515.84;5034647;28;20232;-78
2023/10/02 07:36:44;;;;;;;6.65;3.20;;;;;;;14.64;62.12;63513.72;5039049;28;20202;-78
2023/10/02 07:39:35;;;;;;;4.35;2.95;;;;;;;14.47;63.68;63493.50;5031189;28;20202;-79
2023/10/02 07:42:01;;;;;;;8.90;3.42;;;;;;;14.51;63.69;63497.16;5034059;28;20202;-77
2023/10/02 07:44:36;;;;;;;4.53;2.97;;;;;;;14.57;64.12;63500.81;5039717;28;20218;-79
2023/10/02 07:47:08;;;;;;;9.70;3.72;;;;;;;14.79;63.29;63526.75;5033756;28;20462;-81
2023/10/02 07:49:38;;;;;;;6.30;3.58;;;;;;;15.03;60.90;63543.97;5033526;28;20222;-80
2023/10/02 07:52:08;;;;;;;5.13;3.20;;;;;;;15.24;60.07;63567.84;5037323;28;20209;-81
2023/10/02 07:54:44;;;;;;;5.70;3.35;;;;;;;15.50;59.24;63597.47;5035042;28;20341;-81
2023/10/02 07:57:13;;;;;;;3.53;3.22;;;;;;;15.54;58.23;63604.19;5036260;28;20232;-79
2023/10/02 07:59:43;;;;;;;4.65;2.95;;;;;;;15.71;57.91;63619.28;5030343;28;20221;-80
2023/10/02 08:02:23;;;;;;;4.20;3.13;;;;;;;16.06;56.82;63660.81;5034995;28;20221;-80
2023/10/02 08:04:52;;;;;;;6.93;3.20;;;;;;;16.17;55.21;63669.69;5028694;28;20221;-77
2023/10/02 08:07:19;;;;;;;7.20;2.90;;;;;;;16.01;55.59;63652.53;5033444;28;20240;-77
2023/10/02 08:09:48;;;;;;;4.72;3.55;;;;;;;16.22;54.95;63673.84;5040169;28;20226;-78
2023/10/02 08:12:30;;;;;;;5.25;3.33;;;;;;;16.42;54.86;63697.75;5039789;28;20202;-79
2023/10/02 08:15:00;;;;;;;4.55;2.55;;;;;;;16.64;54.24;63712.41;5033412;28;20218;-80
2023/10/02 08:20:19;;;;;;;2.88;2.60;;;;;;;16.23;54.35;63674.88;5033277;28;20217;-77
2023/10/02 08:22:48;;;;;;;7.30;3.40;;;;;;;16.29;54.69;63683.72;5031937;28;20206;-80
2023/10/02 08:25:16;;;;;;;7.93;3.80;;;;;;;16.42;54.67;63695.19;5035470;28;20300;-78
2023/10/02 08:27:44;;;;;;;3.63;3.28;;;;;;;16.64;53.56;63717.56;5034253;28;20201;-78
2023/10/02 08:30:27;;;;;;;6.22;3.33;;;;;;;16.73;54.56;63724.34;5034713;28;20232;-76
2023/10/02 08:32:54;;;;;;;5.43;3.67;;;;;;;16.66;54.19;63719.63;5032414;28;20232;-77
2023/10/02 08:35:24;;;;;;;5.88;3.55;;;;;;;16.29;54.97;63676.50;5031175;28;20293;-77
2023/10/02 08:37:54;;;;;;;3.70;3.20;;;;;;;16.03;56.22;63657.69;5029414;28;20444;-77
2023/10/02 08:40:21;;;;;;;5.30;3.45;;;;;;;16.11;55.94;63665.50;5034206;28;20439;-78
2023/10/02 08:42:52;;;;;;;17.23;3.65;;;;;;;15.99;57.48;63645.84;5036800;28;20225;-77
2023/10/02 08:45:20;;;;;;;4.32;3.55;;;;;;;16.12;58.05;63669.63;5030743;28;20252;-78
2023/10/02 08:47:48;;;;;;;5.93;3.35;;;;;;;16.03;56.13;63652.56;5032632;28;20210;-80
2023/10/02 08:50:16;;;;;;;4.85;3.70;;;;;;;16.28;55.06;63680.59;5031670;28;20272;-76
2023/10/02 08:52:50;;;;;;;4.57;3.15;;;;;;;16.24;55.12;63679.00;5029672;28;20503;-78
2023/10/02 08:55:35;;;;;;;9.45;3.72;;;;;;;16.47;54.68;63697.81;5035545;28;20221;-79
2023/10/02 08:58:16;;;;;;;5.00;3.70;;;;;;;16.69;54.02;63728.44;5030494;28;20217;-79
2023/10/02 09:01:17;;;;;;;5.97;3.33;;;;;;;16.77;54.06;63736.75;5034145;28;20224;-78
2023/10/02 09:03:49;;;;;;;8.95;3.55;;;;;;;16.89;54.40;63744.09;5035273;28;20261;-78
2023/10/02 09:06:28;;;;;;;4.60;3.30;;;;;;;16.97;54.95;63747.28;5032936;28;20249;-79
2023/10/02 09:09:17;;;;;;;3.83;3.33;;;;;;;16.75;54.74;63734.16;5040720;28;20197;-77
2023/10/02 09:11:45;;;;;;;8.57;4.18;;;;;;;16.78;54.88;63730.09;5029031;28;20208;-77
2023/10/02 09:14:21;;;;;;;3.83;3.50;;;;;;;16.79;54.54;63731.13;5031010;28;20448;-80
2023/10/02 09:17:07;;;;;;;4.07;3.10;;;;;;;16.50;54.57;63700.44;5037156;28;20232;-77
2023/10/02 09:19:37;;;;;;;11.73;3.60;;;;;;;16.67;54.83;63721.19;5035936;28;20214;-77
2023/10/02 09:22:10;;;;;;;4.15;3.60;;;;;;;16.72;55.24;63731.03;5035164;28;20415;-78
2023/10/02 09:24:40;;;;;;;8.85;3.78;;;;;;;16.92;54.28;63752.38;5030797;28;20233;-77
2023/10/02 09:27:27;;;;;;;4.53;3.40;;;;;;;16.99;52.96;63756.56;5032650;28;20245;-77
2023/10/02 09:32:49;;;;;;;3.53;3.22;;;;;;;16.95;52.71;63747.78;5031956;28;20393;-77
2023/10/02 09:35:29;;;;;;;5.07;3.38;;;;;;;16.98;51.81;63750.38;5033410;28;20224;-77
2023/10/02 09:38:02;;;;;;;5.38;3.17;;;;;;;16.89;51.72;63741.00;5031659;28;20212;-77
2023/10/02 09:43:19;;;;;;;3.10;2.80;;;;;;;17.21;52.07;63776.88;5037229;28;20255;-76
2023/10/02 09:45:48;;;;;;;5.38;3.60;;;;;;;17.30;51.81;63788.81;5036309;28;20237;-78
2023/10/02 09:51:07;;;;;;;10.98;4.18;;;;;;;17.31;51.92;63792.44;5030778;28;20240;-78
2023/10/02 09:53:39;;;;;;;4.90;3.42;;;;;;;17.52;51.46;63806.59;5035420;28;20197;-77
2023/10/02 09:56:18;;;;;;;4.72;4.07;;;;;;;17.71;51.11;63826.38;5033090;28;20512;-77
2023/10/02 09:58:53;;;;;;;5.40;4.32;;;;;;;17.75;51.04;63833.13;5031085;28;20498;-76
2023/10/02 10:01:34;;;;;;;5.68;3.63;;;;;;;17.77;50.40;63837.78;5026827;28;20201;-77
2023/10/02 10:04:07;;;;;;;4.05;3.65;;;;;;;17.72;50.29;63827.44;5029765;28;20231;-78
2023/10/02 10:06:41;;;;;;;4.78;3.45;;;;;;;17.85;49.55;63845.59;5028095;28;20241;-79
2023/10/02 10:09:50;;;;;;;5.18;3.25;;;;;;;17.78;49.28;63838.31;5030700;28;20517;-76
2023/10/02 10:12:31;;;;;;;6.43;4.60;;;;;;;17.91;49.25;63851.84;5028116;28;20269;-78
2023/10/02 10:15:23;;;;;;;5.10;3.90;;;;;;;18.23;47.65;63882.59;5029873;28;20218;-78
2023/10/02 10:17:57;;;;;;;5.25;3.67;;;;;;;18.17;47.40;63873.78;5028914;28;20546;-77
2023/10/02 10:20:28;;;;;;;4.65;3.35;;;;;;;18.14;46.78;63870.66;5036678;28;20525;-76
2023/10/02 10:22:57;;;;;;;4.22;3.58;;;;;;;17.98;47.45;63854.50;5046291;28;20210;-77
2023/10/02 10:25:44;;;;;;;2.78;2.58;;;;;;;18.18;46.40;63877.94;5051578;28;20217;-77
2023/10/02 10:28:26;;;;;;;6.32;3.72;;;;;;;18.09;46.97;63865.44;5051175;28;20204;-76
2023/10/02 10:30:56;;;;;;;7.72;4.03;;;;;;;18.18;46.48;63879.97;5037969;28;20233;-77
2023/10/02 10:33:40;;;;;;;7.80;4.05;;;;;;;18.19;45.63;63878.97;5047418;28;20362;-76
2023/10/02 10:36:38;;;;;;;7.07;4.07;;;;;;;18.28;43.83;63887.81;5038431;28;20221;-78
2023/10/02 10:39:34;;;;;;;8.52;3.45;;;;;;;18.29;44.15;63886.28;5028968;28;20232;-77
2023/10/02 10:42:05;;;;;;;4.85;3.58;;;;;;;18.43;44.08;63903.47;5033624;28;20202;-77
2023/10/02 10:44:34;;;;;;;8.07;3.65;;;;;;;18.44;44.53;63904.50;5029203;28;20217;-77
2023/10/02 10:47:04;;;;;;;8.15;3.58;;;;;;;18.63;44.12;63924.31;5030709;28;20232;-77
2023/10/02 10:49:53;;;;;;;8.50;3.75;;;;;;;18.74;43.87;63937.84;5034057;28;20214;-79
2023/10/02 10:52:34;;;;;;;6.43;3.97;;;;;;;18.88;43.02;63950.34;5030489;28;20195;-77
2023/10/02 10:55:32;;;;;;;7.28;3.70;;;;;;;18.85;42.70;63946.72;5029737;28;20268;-77
2023/10/02 10:58:02;;;;;;;4.85;3.05;;;;;;;18.76;41.18;63935.28;5037145;28;20205;-76
2023/10/02 11:00:35;;;;;;;9.52;4.20;;;;;;;18.58;41.37;63921.16;5029031;28;20236;-77
2023/10/02 11:03:08;;;;;;;5.25;3.72;;;;;;;18.77;40.92;63946.66;5032576;28;20220;-79
2023/10/02 11:05:36;;;;;;;6.78;4.13;;;;;;;18.93;40.65;63955.56;5034391;28;20285;-77
2023/10/02 11:08:25;;;;;;;4.13;3.72;;;;;;;18.62;40.40;63925.84;5039080;28;20201;-76
2023/10/02 11:11:18;;;;;;;6.75;4.22;;;;;;;18.68;40.57;63931.56;5037248;28;20248;-76
2023/10/02 11:13:54;;;;;;;7.50;4.20;;;;;;;18.95;40.92;63951.97;5030470;28;20261;-78
2023/10/02 11:16:31;;;;;;;5.93;4.10;;;;;;;19.25;40.50;63988.94;5035547;28;20225;-78
2023/10/02 11:19:14;;;;;;;5.90;4.65;;;;;;;19.36;39.73;64000.41;5034991;28;20202;-78
2023/10/02 11:22:01;;;;;;;5.57;4.35;;;;;;;19.20;39.47;63983.72;5037312;28;20257;-77
2023/10/02 11:24:28;;;;;;;6.78;4.10;;;;;;;18.96;41.40;63955.59;5045333;28;20224;-78
2023/10/02 11:27:06;;;;;;;9.40;4.72;;;;;;;19.28;41.85;63991.53;5047867;28;20233;-77
2023/10/02 11:29:40;;;;;;;5.28;3.78;;;;;;;19.57;40.85;64018.72;5048986;28;20220;-78
2023/10/02 11:32:24;;;;;;;8.93;4.15;;;;;;;19.72;40.63;64034.34;5034245;28;20217;-77
2023/10/02 11:34:58;;;;;;;8.52;4.20;;;;;;;19.91;40.64;64054.69;5046193;28;20229;-77
2023/10/02 11:37:27;;;;;;;5.00;4.50;;;;;;;19.64;42.93;64026.00;5049522;28;20262;-79
2023/10/02 11:39:55;;;;;;;6.82;4.38;;;;;;;19.46;44.29;64013.44;5047004;28;20220;-78
2023/10/02 11:42:23;;;;;;;6.10;3.88;;;;;;;19.60;44.05;64022.34;5030545;28;20201;-78
2023/10/02 11:44:50;;;;;;;8.68;4.78;;;;;;;19.68;43.09;64037.91;5030112;28;20226;-77
2023/10/02 11:47:18;;;;;;;8.70;4.57;;;;;;;19.37;43.01;64004.06;5042924;28;20232;-77
2023/10/02 11:49:45;;;;;;;6.05;4.53;;;;;;;19.43;43.38;64009.81;5050510;28;20221;-80
2023/10/02 11:52:13;;;;;;;5.72;4.03;;;;;;;19.79;43.00;64044.22;5038106;28;20206;-78
2023/10/02 11:54:40;;;;;;;8.35;4.68;;;;;;;20.09;42.30;64076.06;5028982;28;20534;-78
2023/10/02 11:57:09;;;;;;;4.85;4.28;;;;;;;20.02;43.63;64068.75;5029045;28;20212;-79
2023/10/02 11:59:42;;;;;;;4.18;3.78;;;;;;;19.79;43.53;64046.81;5030018;28;20226;-78
2023/10/02 12:02:12;;;;;;;5.80;4.38;;;;;;;19.65;44.38;64024.47;5036790;28;20202;-79
2023/10/02 12:04:41;;;;;;;8.30;4.28;;;;;;;20.07;43.50;64076.03;5047962;28;20213;-78
2023/10/02 12:07:08;;;;;;;6.57;4.15;;;;;;;20.36;42.80;64106.81;5038606;28;20257;-78
2023/10/02 12:09:35;;;;;;;9.80;4.63;;;;;;;20.01;44.09;64067.19;5032072;28;20258;-78
2023/10/02 12:12:02;;;;;;;4.93;4.00;;;;;;;20.34;42.69;64104.22;5032736;28;20402;-79
2023/10/02 12:14:31;;;;;;;5.35;4.28;;;;;;;20.28;43.69;64095.38;5037657;28;20218;-77
2023/10/02 12:16:58;;;;;;;5.22;4.72;;;;;;;20.15;44.68;64079.22;5025492;28;20516;-78
2023/10/02 12:19:26;;;;;;;6.63;4.70;;;;;;;20.43;43.12;64113.63;5027558;28;20285;-79
2023/10/02 12:21:55;;;;;;;4.68;4.32;;;;;;;20.68;42.71;64137.13;5037827;28;20467;-79
2023/10/02 12:24:23;;;;;;;6.72;4.68;;;;;;;20.71;42.36;64142.84;5047564;28;20241;-80